Nisku, Canada
Current Conditions -  °F | °C
As of 6:00 PM on Friday 24 Oct 2014 (Local Time) from CYEG Reporting Station
Scattered Clouds Scattered Clouds  
Wind Chill: 44°   Ceiling: Unl
Heat Index: 46°   Visibility: 15mi
Dew Point: 21°   Wind: 6mph
Humidity: 37%   Direction: 300°WNW
Pressure: 29.9"   Gusts: NA
Location:  53.33°N, 113.53°W
Report Text: CYEG 250000Z 30005KT 15SM FEW070TCU SCT100 SCT260 08/M06 A2990 RMK TCU1ACC3CI1 CI TR CB TOPS DIST S VIRGA W-N SLP145
Loading
Personal Weather Stations






























Interactive Weather Map New forecast layout! Learn more

10-Day Weather Forecast

Advertisements
Track Severe Weather on mobile